createdAt,value
2023-03-21T00:01:42.244Z,8.68
2023-03-21T00:03:46.750Z,8.77
2023-03-21T00:05:51.855Z,8.75
2023-03-21T00:07:54.682Z,8.74
2023-03-21T00:10:08.620Z,8.76
2023-03-21T00:12:17.229Z,8.76
2023-03-21T00:14:20.217Z,8.73
2023-03-21T00:16:29.836Z,8.75
2023-03-21T00:18:36.655Z,8.69
2023-03-21T00:20:40.624Z,8.69
2023-03-21T00:22:43.761Z,8.62
2023-03-21T00:24:46.512Z,8.62
2023-03-21T00:26:49.157Z,8.64
2023-03-21T00:28:52.059Z,8.74
2023-03-21T00:30:58.837Z,8.74
2023-03-21T00:33:05.869Z,8.77
2023-03-21T00:35:51.597Z,8.76
2023-03-21T00:37:39.205Z,8.79
2023-03-21T00:39:41.885Z,8.74
2023-03-21T00:41:44.634Z,8.81
2023-03-21T00:43:47.302Z,8.74
2023-03-21T00:45:51.157Z,8.76
2023-03-21T00:47:53.852Z,8.76
2023-03-21T00:49:57.244Z,8.79
2023-03-21T00:52:14.644Z,8.78
2023-03-21T00:54:19.949Z,8.79
2023-03-21T00:56:23.253Z,8.86
2023-03-21T00:58:26.156Z,8.80
2023-03-21T01:00:28.886Z,8.79
2023-03-21T01:02:31.537Z,8.93
2023-03-21T01:04:35.395Z,8.88
2023-03-21T01:06:40.052Z,8.89
2023-03-21T01:08:52.284Z,8.85
2023-03-21T01:10:57.155Z,8.84
2023-03-21T01:13:00.229Z,8.83
2023-03-21T01:15:02.881Z,8.78
2023-03-21T01:17:06.554Z,8.78
2023-03-21T01:19:18.449Z,8.87
2023-03-21T01:21:27.699Z,8.93
2023-03-21T01:23:30.641Z,8.98
2023-03-21T01:25:33.283Z,8.95
2023-03-21T01:27:37.260Z,8.69
2023-03-21T01:29:39.877Z,8.54
2023-03-21T01:31:42.565Z,8.55
2023-03-21T01:33:46.033Z,8.70
2023-03-21T01:35:55.197Z,8.67
2023-03-21T01:38:02.871Z,8.60
2023-03-21T01:40:07.052Z,8.61
2023-03-21T01:42:13.693Z,8.66
2023-03-21T01:44:19.098Z,8.66
2023-03-21T01:46:51.453Z,8.72
2023-03-21T01:49:03.391Z,8.72
2023-03-21T01:51:07.283Z,8.74
2023-03-21T01:53:10.110Z,8.75
2023-03-21T01:55:14.795Z,8.77
2023-03-21T01:57:25.861Z,8.77
2023-03-21T01:59:37.778Z,8.81
2023-03-21T02:01:42.276Z,8.77
2023-03-21T02:03:51.297Z,8.77
2023-03-21T02:06:00.248Z,8.76
2023-03-21T02:08:02.950Z,8.73
2023-03-21T02:10:09.860Z,8.72
2023-03-21T02:12:12.692Z,8.71
2023-03-21T02:14:26.759Z,8.65
2023-03-21T02:16:43.194Z,8.74
2023-03-21T02:18:56.590Z,8.71
2023-03-21T02:21:26.827Z,8.67
2023-03-21T02:24:06.250Z,8.61
2023-03-21T02:26:42.063Z,8.50
2023-03-21T02:28:50.313Z,8.44
2023-03-21T02:31:29.504Z,8.49
2023-03-21T02:34:07.687Z,8.43
2023-03-21T02:36:25.656Z,8.27
2023-03-21T02:38:38.353Z,8.24
2023-03-21T02:40:43.085Z,8.43
2023-03-21T02:43:01.392Z,8.34
2023-03-21T02:45:10.379Z,8.35
2023-03-21T02:47:16.667Z,8.24
2023-03-21T02:49:26.026Z,8.25
2023-03-21T02:51:32.017Z,8.30
2023-03-21T02:53:41.348Z,8.27
2023-03-21T02:55:45.619Z,8.18
2023-03-21T02:57:52.506Z,8.17
2023-03-21T03:00:02.375Z,8.17
2023-03-21T03:02:08.285Z,8.19
2023-03-21T03:04:22.387Z,8.18
2023-03-21T03:06:30.388Z,8.20
2023-03-21T03:08:56.303Z,8.26
2023-03-21T03:11:15.426Z,8.29
2023-03-21T03:13:33.248Z,8.30
2023-03-21T03:15:45.538Z,8.16
2023-03-21T03:17:53.551Z,8.14
2023-03-21T03:20:16.397Z,8.13
2023-03-21T03:22:26.505Z,8.12
2023-03-21T03:24:34.051Z,8.08
2023-03-21T03:26:40.756Z,8.13
2023-03-21T03:28:45.744Z,8.22
2023-03-21T03:31:05.495Z,8.29
2023-03-21T03:33:12.014Z,8.15
2023-03-21T03:35:17.426Z,8.19
2023-03-21T03:37:26.246Z,8.20
2023-03-21T03:39:36.651Z,8.32
2023-03-21T03:42:05.934Z,8.23
2023-03-21T03:44:07.297Z,8.34
2023-03-21T03:46:14.891Z,8.33
2023-03-21T03:48:26.156Z,8.28
2023-03-21T03:50:32.605Z,8.27
2023-03-21T03:52:50.009Z,8.31
2023-03-21T03:55:00.002Z,8.22
2023-03-21T03:57:03.466Z,8.27
2023-03-21T03:59:07.318Z,8.36
2023-03-21T04:01:10.909Z,8.34
2023-03-21T04:03:14.636Z,8.27
2023-03-21T04:05:21.207Z,8.19
2023-03-21T04:07:25.074Z,8.13
2023-03-21T04:09:42.627Z,8.22
2023-03-21T04:11:47.505Z,8.18
2023-03-21T04:13:50.409Z,8.12
2023-03-21T04:15:53.048Z,8.24
2023-03-21T04:17:55.799Z,8.14
2023-03-21T04:20:10.985Z,8.14
2023-03-21T04:22:17.047Z,8.13
2023-03-21T04:24:19.691Z,8.20
2023-03-21T04:26:22.346Z,8.21
2023-03-21T04:28:26.399Z,8.11
2023-03-21T04:30:29.070Z,8.08
2023-03-21T04:32:33.892Z,8.14
2023-03-21T04:34:40.194Z,8.00
2023-03-21T04:36:45.670Z,8.03
2023-03-21T04:38:48.565Z,8.04
2023-03-21T04:40:51.342Z,8.01
2023-03-21T04:42:53.968Z,8.00
2023-03-21T04:44:57.906Z,8.07
2023-03-21T04:47:00.533Z,8.03
2023-03-21T04:49:03.775Z,7.96
2023-03-21T04:51:06.945Z,7.80
2023-03-21T04:53:09.535Z,7.84
2023-03-21T04:55:12.118Z,7.82
2023-03-21T04:57:14.875Z,7.86
2023-03-21T04:59:17.728Z,7.82
2023-03-21T05:01:21.671Z,7.89
2023-03-21T05:03:24.320Z,7.81
2023-03-21T05:05:27.040Z,7.81
2023-03-21T05:07:32.645Z,7.90
2023-03-21T05:09:35.399Z,7.90
2023-03-21T05:11:40.259Z,7.86
2023-03-21T05:13:42.873Z,7.82
2023-03-21T05:15:45.511Z,7.82
2023-03-21T05:17:49.613Z,7.74
2023-03-21T05:19:53.231Z,7.66
2023-03-21T05:21:55.854Z,7.79
2023-03-21T05:23:58.506Z,7.81
2023-03-21T05:26:01.132Z,7.77
2023-03-21T05:28:03.767Z,7.74
2023-03-21T05:30:09.352Z,7.77
2023-03-21T05:32:12.033Z,7.63
2023-03-21T05:34:16.055Z,7.64
2023-03-21T05:36:18.819Z,7.65
2023-03-21T05:38:21.829Z,7.65
2023-03-21T05:40:24.514Z,7.62
2023-03-21T05:42:27.226Z,7.63
2023-03-21T05:44:29.795Z,7.57
2023-03-21T05:46:32.453Z,7.58
2023-03-21T05:48:35.900Z,7.56
2023-03-21T05:50:41.245Z,7.56
2023-03-21T05:52:43.898Z,7.55
2023-03-21T05:54:46.507Z,7.51
2023-03-21T05:56:49.182Z,7.72
2023-03-21T05:58:51.810Z,7.70
2023-03-21T06:00:54.424Z,7.71
2023-03-21T06:02:57.087Z,7.74
2023-03-21T06:04:59.779Z,7.67
2023-03-21T06:07:03.883Z,7.61
2023-03-21T06:09:07.322Z,7.56
2023-03-21T06:11:24.194Z,7.56
2023-03-21T06:13:26.868Z,7.64
2023-03-21T06:15:29.647Z,7.60
2023-03-21T06:17:32.396Z,7.60
2023-03-21T06:19:35.026Z,7.66
2023-03-21T06:21:37.762Z,7.62
2023-03-21T06:23:41.774Z,7.66
2023-03-21T06:25:44.348Z,7.73
2023-03-21T06:27:47.009Z,7.79
2023-03-21T06:29:49.866Z,7.74
2023-03-21T06:31:52.530Z,7.75
2023-03-21T06:33:55.216Z,7.73
2023-03-21T06:35:59.708Z,7.87
2023-03-21T06:38:02.473Z,7.98
2023-03-21T06:40:08.690Z,7.80
2023-03-21T06:42:11.553Z,7.91
2023-03-21T06:44:14.235Z,7.80
2023-03-21T06:46:16.908Z,7.92
2023-03-21T06:48:19.558Z,7.79
2023-03-21T06:50:22.208Z,7.83
2023-03-21T06:52:24.877Z,7.95
2023-03-21T06:54:27.597Z,7.90
2023-03-21T06:56:31.605Z,7.96
2023-03-21T06:58:34.484Z,8.14
2023-03-21T07:00:37.213Z,8.28
2023-03-21T07:02:39.914Z,8.09
2023-03-21T07:04:42.876Z,8.17
2023-03-21T07:06:45.517Z,8.18
2023-03-21T07:08:48.524Z,8.21
2023-03-21T07:10:51.211Z,8.48
2023-03-21T07:12:55.425Z,8.83
2023-03-21T07:14:58.262Z,9.30
2023-03-21T07:17:01.349Z,9.51
2023-03-21T07:19:04.366Z,9.08
2023-03-21T07:21:07.812Z,9.18
2023-03-21T07:23:10.766Z,9.56
2023-03-21T07:25:13.720Z,9.69
2023-03-21T07:27:16.870Z,9.83
2023-03-21T07:29:23.169Z,10.39
2023-03-21T07:31:26.884Z,10.57
2023-03-21T07:33:29.577Z,10.34
2023-03-21T07:35:32.393Z,10.67
2023-03-21T07:37:37.553Z,10.97
2023-03-21T07:39:40.791Z,11.14
2023-03-21T07:41:43.449Z,10.29
2023-03-21T07:43:46.095Z,9.89
2023-03-21T07:45:50.082Z,9.97
2023-03-21T07:47:52.835Z,10.40
2023-03-21T07:49:55.457Z,10.75
2023-03-21T07:51:59.614Z,11.26
2023-03-21T07:54:02.736Z,11.20
2023-03-21T07:56:06.272Z,11.37
2023-03-21T07:58:08.942Z,10.73
2023-03-21T08:00:13.654Z,11.68
2023-03-21T08:02:18.525Z,12.56
2023-03-21T08:04:21.242Z,11.77
2023-03-21T08:06:24.151Z,12.44
2023-03-21T08:08:26.765Z,12.53
2023-03-21T08:10:29.580Z,11.91
2023-03-21T08:12:32.254Z,12.29
2023-03-21T08:14:34.901Z,12.03
2023-03-21T08:16:37.665Z,12.12
2023-03-21T08:18:42.775Z,11.97
2023-03-21T08:20:45.600Z,11.96
2023-03-21T08:22:48.848Z,13.31
2023-03-21T08:24:51.460Z,14.79
2023-03-21T08:26:54.078Z,15.49
2023-03-21T08:28:56.669Z,15.84
2023-03-21T08:30:59.323Z,15.35
2023-03-21T08:33:02.417Z,16.69
2023-03-21T08:35:10.030Z,15.03
2023-03-21T08:37:12.746Z,16.05
2023-03-21T08:39:15.393Z,16.36
2023-03-21T08:41:19.252Z,16.53
2023-03-21T08:43:21.927Z,15.47
2023-03-21T08:45:25.403Z,15.01
2023-03-21T08:47:28.045Z,16.39
2023-03-21T08:49:30.897Z,16.01
2023-03-21T08:51:37.522Z,17.30
2023-03-21T08:53:41.515Z,17.68
2023-03-21T08:55:45.463Z,16.91
2023-03-21T08:57:48.583Z,16.03
2023-03-21T08:59:51.386Z,16.81
2023-03-21T09:01:54.141Z,16.61
2023-03-21T09:03:56.777Z,16.25
2023-03-21T09:06:00.676Z,15.75
2023-03-21T09:08:05.943Z,15.47
2023-03-21T09:10:25.890Z,16.03
2023-03-21T09:12:28.599Z,17.07
2023-03-21T09:14:31.355Z,16.80
2023-03-21T09:16:34.649Z,17.27
2023-03-21T09:18:48.722Z,19.27
2023-03-21T09:20:51.812Z,18.27
2023-03-21T09:22:54.782Z,18.71
2023-03-21T09:24:59.303Z,17.78
2023-03-21T09:27:02.044Z,18.54
2023-03-21T09:29:05.904Z,18.43
2023-03-21T09:31:11.316Z,19.22
2023-03-21T09:33:25.390Z,16.92
2023-03-21T09:35:28.514Z,15.99
2023-03-21T09:37:32.635Z,15.20
2023-03-21T09:39:35.552Z,13.81
2023-03-21T09:41:58.851Z,13.69
2023-03-21T09:44:12.699Z,14.23
2023-03-21T09:46:25.869Z,15.15
2023-03-21T09:48:46.898Z,16.28
2023-03-21T09:50:53.819Z,16.36
2023-03-21T09:52:58.427Z,18.96
2023-03-21T09:55:01.389Z,20.23
2023-03-21T09:57:15.954Z,18.91
2023-03-21T09:59:26.268Z,19.95
2023-03-21T10:01:33.025Z,19.66
2023-03-21T10:03:36.675Z,20.72
2023-03-21T10:05:45.832Z,19.99
2023-03-21T10:07:54.308Z,16.41
2023-03-21T10:09:58.708Z,17.15
2023-03-21T10:12:04.320Z,18.78
2023-03-21T10:14:17.862Z,18.98
2023-03-21T10:16:27.645Z,18.23
2023-03-21T10:18:31.979Z,18.70
2023-03-21T10:20:37.193Z,18.36
2023-03-21T10:22:40.261Z,17.85
2023-03-21T10:24:42.972Z,17.45
2023-03-21T10:26:47.646Z,16.94
2023-03-21T10:28:53.413Z,18.15
2023-03-21T10:30:59.831Z,19.17
2023-03-21T10:33:06.002Z,19.62
2023-03-21T10:35:14.260Z,17.99
2023-03-21T10:37:17.602Z,16.47
2023-03-21T10:39:28.163Z,16.71
2023-03-21T10:41:30.898Z,16.38
2023-03-21T10:43:37.714Z,15.08
2023-03-21T10:45:40.948Z,15.64
2023-03-21T10:47:49.897Z,15.17
2023-03-21T10:50:09.898Z,15.98
2023-03-21T10:52:16.480Z,16.39
2023-03-21T10:54:21.296Z,17.07
2023-03-21T10:56:27.664Z,16.00
2023-03-21T10:58:33.308Z,16.29
2023-03-21T11:00:41.187Z,16.62
2023-03-21T11:02:49.905Z,16.28
2023-03-21T11:04:54.346Z,15.59
2023-03-21T11:07:01.203Z,15.36
2023-03-21T11:09:09.616Z,15.16
2023-03-21T11:11:22.193Z,15.01
2023-03-21T11:13:27.094Z,15.70
2023-03-21T11:15:33.004Z,15.68
2023-03-21T11:17:36.672Z,15.95
2023-03-21T11:19:40.610Z,15.17
2023-03-21T11:21:44.243Z,15.68
2023-03-21T11:23:49.688Z,15.78
2023-03-21T11:25:52.958Z,16.33
2023-03-21T11:27:56.880Z,15.59
2023-03-21T11:30:02.791Z,16.00
2023-03-21T11:32:12.281Z,15.42
2023-03-21T11:34:27.377Z,15.68
2023-03-21T11:36:37.967Z,15.73
2023-03-21T11:38:41.138Z,15.75
2023-03-21T11:40:53.788Z,15.64
2023-03-21T11:42:58.063Z,15.78
2023-03-21T11:45:11.435Z,16.25
2023-03-21T11:47:14.185Z,15.84
2023-03-21T11:49:16.914Z,16.11
2023-03-21T11:51:28.029Z,15.98
2023-03-21T11:53:41.683Z,15.89
2023-03-21T11:56:01.977Z,15.75
2023-03-21T11:58:24.088Z,15.55
2023-03-21T12:00:32.923Z,15.76
2023-03-21T12:02:55.368Z,15.46
2023-03-21T12:05:05.104Z,15.43
2023-03-21T12:07:17.561Z,15.26
2023-03-21T12:09:30.497Z,15.44
2023-03-21T12:11:44.222Z,15.44
2023-03-21T12:13:56.227Z,15.02
2023-03-21T12:16:11.801Z,15.25
2023-03-21T12:18:30.385Z,15.37
2023-03-21T12:20:44.798Z,15.55
2023-03-21T12:23:02.339Z,15.13
2023-03-21T12:25:12.105Z,15.43
2023-03-21T12:27:24.949Z,15.03
2023-03-21T12:29:41.781Z,14.92
2023-03-21T12:31:53.520Z,15.50
2023-03-21T12:34:11.144Z,15.58
2023-03-21T12:36:28.764Z,15.49
2023-03-21T12:38:41.488Z,15.79
2023-03-21T12:40:59.519Z,15.80
2023-03-21T12:43:34.151Z,15.34
2023-03-21T12:45:47.054Z,15.88
2023-03-21T12:47:56.062Z,15.85
2023-03-21T12:50:02.675Z,15.74
2023-03-21T12:52:06.784Z,15.73
2023-03-21T12:54:17.442Z,15.82
2023-03-21T12:56:26.329Z,15.70
2023-03-21T12:58:32.183Z,15.81
2023-03-21T13:00:39.757Z,15.51
2023-03-21T13:02:45.821Z,15.56
2023-03-21T13:05:01.354Z,15.73
2023-03-21T13:07:09.584Z,15.97
2023-03-21T13:09:23.318Z,16.48
2023-03-21T13:11:33.218Z,15.90
2023-03-21T13:13:41.178Z,15.95
2023-03-21T13:15:53.781Z,16.06
2023-03-21T13:18:03.383Z,16.29
2023-03-21T13:20:19.160Z,16.19
2023-03-21T13:22:27.295Z,16.09
2023-03-21T13:24:39.408Z,16.27
2023-03-21T13:26:49.832Z,15.89
2023-03-21T13:28:53.316Z,16.00
2023-03-21T13:31:18.107Z,15.92
2023-03-21T13:33:25.885Z,16.10
2023-03-21T13:35:37.640Z,15.61
2023-03-21T13:37:42.999Z,15.56
2023-03-21T13:39:47.830Z,15.65
2023-03-21T13:41:53.188Z,15.85
2023-03-21T13:44:06.457Z,15.76
2023-03-21T13:46:11.283Z,15.96
2023-03-21T13:48:29.768Z,16.29
2023-03-21T13:50:50.661Z,16.05
2023-03-21T13:53:23.645Z,16.24
2023-03-21T13:55:30.651Z,15.84
2023-03-21T13:57:40.749Z,16.30
2023-03-21T13:59:45.605Z,16.57
2023-03-21T14:02:00.525Z,16.64
2023-03-21T14:04:16.032Z,16.38
2023-03-21T14:06:20.043Z,16.13
2023-03-21T14:08:36.524Z,16.47
2023-03-21T14:10:44.334Z,16.48
2023-03-21T14:12:49.427Z,16.41
2023-03-21T14:14:55.211Z,16.65
2023-03-21T14:16:58.952Z,16.70
2023-03-21T14:19:04.661Z,16.39
2023-03-21T14:21:09.389Z,16.44
2023-03-21T14:23:17.285Z,16.14
2023-03-21T14:25:21.877Z,16.16
2023-03-21T14:27:28.719Z,15.67
2023-03-21T14:29:35.265Z,15.57
2023-03-21T14:31:39.950Z,16.07
2023-03-21T14:33:46.641Z,15.93
2023-03-21T14:35:50.983Z,15.93
2023-03-21T14:37:53.681Z,15.97
2023-03-21T14:40:01.050Z,15.95
2023-03-21T14:42:06.529Z,16.06
2023-03-21T14:44:16.732Z,15.85
2023-03-21T14:46:22.042Z,15.86
2023-03-21T14:48:31.719Z,15.84
2023-03-21T14:50:39.711Z,15.88
2023-03-21T14:52:44.401Z,15.83
2023-03-21T14:54:48.865Z,15.62
2023-03-21T14:56:54.396Z,15.41
2023-03-21T14:58:57.478Z,14.72
2023-03-21T15:01:04.154Z,14.87
2023-03-21T15:03:08.479Z,14.88
2023-03-21T15:05:20.295Z,14.98
2023-03-21T15:07:28.733Z,15.01
2023-03-21T15:09:34.540Z,14.96
2023-03-21T15:11:39.076Z,14.92
2023-03-21T15:13:52.577Z,15.08
2023-03-21T15:15:55.586Z,15.25
2023-03-21T15:18:03.953Z,14.81
2023-03-21T15:20:11.716Z,14.88
2023-03-21T15:22:21.909Z,14.84
2023-03-21T15:24:29.433Z,14.77
2023-03-21T15:26:32.696Z,14.95
2023-03-21T15:28:36.309Z,15.05
2023-03-21T15:30:39.035Z,15.11
2023-03-21T15:32:41.721Z,15.04
2023-03-21T15:34:45.798Z,14.81
2023-03-21T15:36:56.137Z,14.82
2023-03-21T15:39:02.664Z,14.73
2023-03-21T15:41:15.553Z,14.97
2023-03-21T15:43:19.715Z,14.87
2023-03-21T15:45:25.551Z,14.74
2023-03-21T15:47:42.202Z,14.80
2023-03-21T15:49:44.941Z,14.65
2023-03-21T15:51:53.558Z,14.66
2023-03-21T15:53:56.417Z,14.45
2023-03-21T15:56:01.849Z,14.30
2023-03-21T15:58:09.780Z,14.37
2023-03-21T16:00:22.881Z,14.05
2023-03-21T16:02:30.676Z,13.93
2023-03-21T16:04:33.343Z,13.96
2023-03-21T16:06:38.498Z,13.89
2023-03-21T16:08:47.623Z,13.80
2023-03-21T16:10:50.452Z,13.67
2023-03-21T16:12:53.185Z,13.76
2023-03-21T16:14:56.442Z,13.57
2023-03-21T16:16:59.552Z,13.62
2023-03-21T16:19:03.168Z,13.61
2023-03-21T16:21:06.053Z,13.61
2023-03-21T16:23:10.883Z,13.55
2023-03-21T16:25:15.369Z,13.54
2023-03-21T16:27:19.827Z,13.71
2023-03-21T16:29:22.560Z,13.63
2023-03-21T16:31:27.038Z,13.61
2023-03-21T16:33:29.651Z,13.44
2023-03-21T16:35:32.303Z,13.39
2023-03-21T16:37:34.928Z,13.26
2023-03-21T16:39:37.673Z,13.41
2023-03-21T16:41:41.771Z,13.28
2023-03-21T16:43:46.157Z,13.23
2023-03-21T16:45:48.901Z,13.11
2023-03-21T16:47:52.063Z,13.23
2023-03-21T16:49:55.669Z,13.16
2023-03-21T16:51:58.349Z,13.18
2023-03-21T16:54:01.541Z,13.08
2023-03-21T16:56:05.252Z,13.02
2023-03-21T16:58:09.371Z,13.11
2023-03-21T17:00:16.666Z,13.04
2023-03-21T17:02:19.327Z,13.04
2023-03-21T17:04:22.462Z,13.04
2023-03-21T17:06:27.476Z,12.95
2023-03-21T17:08:30.540Z,12.96
2023-03-21T17:10:33.958Z,13.03
2023-03-21T17:12:37.368Z,13.02
2023-03-21T17:14:41.984Z,12.98
2023-03-21T17:16:45.763Z,12.98
2023-03-21T17:18:49.131Z,12.92
2023-03-21T17:20:51.860Z,12.83
2023-03-21T17:22:54.502Z,12.88
2023-03-21T17:24:57.102Z,12.95
2023-03-21T17:27:01.305Z,12.91
2023-03-21T17:29:04.980Z,12.86
2023-03-21T17:31:14.051Z,12.85
2023-03-21T17:33:16.758Z,12.78
2023-03-21T17:35:20.051Z,12.70
2023-03-21T17:37:25.955Z,12.89
2023-03-21T17:39:28.890Z,13.02
2023-03-21T17:41:31.554Z,12.85
2023-03-21T17:43:34.182Z,12.83
2023-03-21T17:45:36.841Z,12.59
2023-03-21T17:47:41.543Z,12.57
2023-03-21T17:49:44.215Z,12.73
2023-03-21T17:51:47.023Z,12.56
2023-03-21T17:53:51.839Z,12.54
2023-03-21T17:55:54.599Z,12.50
2023-03-21T17:57:57.440Z,12.55
2023-03-21T18:00:00.394Z,12.46
2023-03-21T18:02:03.013Z,12.39
2023-03-21T18:04:07.211Z,12.37
2023-03-21T18:06:16.029Z,12.43
2023-03-21T18:08:18.678Z,12.40
2023-03-21T18:10:24.741Z,12.35
2023-03-21T18:12:27.607Z,12.35
2023-03-21T18:14:30.776Z,12.32
2023-03-21T18:16:33.524Z,12.30
2023-03-21T18:18:36.264Z,12.36
2023-03-21T18:20:51.638Z,12.34
2023-03-21T18:22:55.408Z,12.37
2023-03-21T18:24:58.893Z,12.30
2023-03-21T18:27:02.671Z,12.39
2023-03-21T18:31:28.247Z,12.33
2023-03-21T18:33:30.967Z,12.34
2023-03-21T18:35:33.608Z,12.41
2023-03-21T18:37:37.614Z,12.31
2023-03-21T18:39:40.785Z,12.35
2023-03-21T18:41:43.817Z,12.32
2023-03-21T18:44:06.092Z,12.37
2023-03-21T18:46:09.447Z,12.39
2023-03-21T18:48:13.240Z,12.42
2023-03-21T18:50:16.413Z,12.67
2023-03-21T18:52:19.228Z,12.49
2023-03-21T18:54:24.027Z,12.43
2023-03-21T18:57:20.071Z,12.29
2023-03-21T18:58:49.300Z,12.39
2023-03-21T19:00:53.449Z,12.34
2023-03-21T19:03:13.882Z,12.30
2023-03-21T19:05:22.576Z,12.28
2023-03-21T19:07:25.295Z,12.16
2023-03-21T19:09:32.151Z,12.12
2023-03-21T19:11:34.921Z,12.11
2023-03-21T19:13:37.767Z,12.09
2023-03-21T19:15:41.423Z,12.17
2023-03-21T19:20:07.676Z,12.19
2023-03-21T19:22:10.579Z,12.22
2023-03-21T19:24:27.099Z,12.13
2023-03-21T19:26:32.041Z,12.08
2023-03-21T19:28:34.700Z,12.36
2023-03-21T19:30:37.712Z,12.29
2023-03-21T19:32:40.686Z,12.27
2023-03-21T19:34:43.358Z,12.27
2023-03-21T19:36:51.447Z,12.16
2023-03-21T19:38:54.894Z,12.02
2023-03-21T19:41:00.032Z,12.04
2023-03-21T19:43:21.692Z,11.97
2023-03-21T19:45:26.707Z,11.96
2023-03-21T19:47:29.335Z,12.04
2023-03-21T19:50:00.748Z,12.01
2023-03-21T19:51:54.900Z,12.03
2023-03-21T19:53:57.794Z,11.96
2023-03-21T19:56:03.696Z,12.06
2023-03-21T19:58:08.029Z,11.94
2023-03-21T20:00:11.728Z,11.91
2023-03-21T20:02:34.567Z,11.89
2023-03-21T20:04:37.073Z,11.89
2023-03-21T20:06:39.760Z,11.80
2023-03-21T20:09:13.576Z,11.78
2023-03-21T20:11:05.680Z,11.67
2023-03-21T20:13:09.662Z,11.68
2023-03-21T20:15:19.308Z,11.83
2023-03-21T20:17:23.648Z,11.71
2023-03-21T20:19:27.138Z,11.72
2023-03-21T20:21:36.570Z,11.75
2023-03-21T20:23:49.352Z,11.70
2023-03-21T20:25:52.048Z,11.70
2023-03-21T20:28:12.646Z,11.70
2023-03-21T20:30:20.017Z,11.66
2023-03-21T20:32:22.698Z,11.67
2023-03-21T20:34:25.489Z,11.64
2023-03-21T20:36:43.887Z,11.68
2023-03-21T20:38:46.992Z,11.62
2023-03-21T20:40:49.655Z,11.59
2023-03-21T20:42:52.633Z,11.58
2023-03-21T20:45:00.587Z,11.54
2023-03-21T20:47:06.322Z,11.59
2023-03-21T20:49:08.939Z,11.38
2023-03-21T20:53:36.545Z,11.41
2023-03-21T20:55:39.629Z,11.34
2023-03-21T20:57:42.745Z,11.42
2023-03-21T20:59:46.000Z,11.37
2023-03-21T21:01:48.816Z,11.35
2023-03-21T21:03:54.258Z,11.36
2023-03-21T21:05:56.917Z,11.45
2023-03-21T21:07:59.654Z,11.49
2023-03-21T21:10:02.269Z,11.45
2023-03-21T21:12:07.411Z,11.49
2023-03-21T21:14:10.708Z,11.45
2023-03-21T21:16:14.153Z,11.53
2023-03-21T21:18:16.829Z,11.49
2023-03-21T21:20:20.934Z,11.52
2023-03-21T21:22:23.573Z,11.45
2023-03-21T21:24:26.212Z,11.37
2023-03-21T21:26:29.046Z,11.44
2023-03-21T21:28:32.136Z,11.42
2023-03-21T21:30:38.398Z,11.44
2023-03-21T21:32:41.883Z,11.43
2023-03-21T21:34:44.741Z,11.46
2023-03-21T21:36:49.622Z,11.39
2023-03-21T21:38:52.975Z,11.34
2023-03-21T21:41:00.206Z,11.23
2023-03-21T21:43:03.744Z,11.23
2023-03-21T21:45:08.551Z,11.21
2023-03-21T21:47:11.241Z,11.18
2023-03-21T21:49:13.896Z,11.16
2023-03-21T21:51:18.001Z,11.25
2023-03-21T21:53:22.987Z,11.25
2023-03-21T21:55:25.704Z,11.31
2023-03-21T21:57:30.445Z,11.34
2023-03-21T21:59:33.932Z,11.32
2023-03-21T22:01:38.818Z,11.43
2023-03-21T22:03:42.247Z,11.47
2023-03-21T22:05:45.356Z,11.47
2023-03-21T22:07:48.183Z,11.42
2023-03-21T22:09:52.314Z,11.49
2023-03-21T22:11:56.614Z,11.42
2023-03-21T22:13:59.291Z,11.48
2023-03-21T22:16:02.057Z,11.41
2023-03-21T22:18:05.144Z,11.33
2023-03-21T22:20:09.830Z,11.31
2023-03-21T22:22:12.492Z,11.24
2023-03-21T22:24:15.167Z,11.36
2023-03-21T22:26:19.249Z,11.32
2023-03-21T22:28:25.525Z,11.38
2023-03-21T22:30:28.213Z,11.37
2023-03-21T22:32:31.110Z,11.46
2023-03-21T22:34:33.748Z,11.31
2023-03-21T22:36:36.389Z,11.27
2023-03-21T22:38:39.093Z,11.23
2023-03-21T22:40:42.216Z,11.30
2023-03-21T22:42:46.400Z,11.35
2023-03-21T22:44:49.070Z,11.49
2023-03-21T22:46:51.716Z,11.27
2023-03-21T22:48:54.382Z,11.29
2023-03-21T22:50:57.633Z,11.29
2023-03-21T22:53:00.317Z,11.29
2023-03-21T22:55:02.940Z,11.25
2023-03-21T22:57:06.344Z,11.25
2023-03-21T22:59:10.356Z,11.17
2023-03-21T23:01:13.047Z,11.16
2023-03-21T23:03:16.694Z,11.17
2023-03-21T23:05:19.792Z,11.22
2023-03-21T23:07:22.428Z,11.06
2023-03-21T23:09:25.590Z,10.95
2023-03-21T23:11:28.218Z,10.88
2023-03-21T23:13:31.498Z,10.87
2023-03-21T23:15:35.712Z,10.83
2023-03-21T23:17:39.225Z,10.79
2023-03-21T23:19:41.801Z,10.78
2023-03-21T23:21:44.794Z,10.75
2023-03-21T23:23:49.718Z,10.68
2023-03-21T23:25:52.702Z,10.56
2023-03-21T23:27:55.864Z,10.56
2023-03-21T23:29:58.531Z,10.44
2023-03-21T23:32:02.512Z,10.47
2023-03-21T23:34:06.057Z,10.37
2023-03-21T23:36:10.764Z,10.26
2023-03-21T23:38:13.401Z,10.26
2023-03-21T23:40:16.023Z,10.11
2023-03-21T23:42:18.873Z,10.07
2023-03-21T23:44:21.481Z,10.03
2023-03-21T23:46:24.115Z,9.95
2023-03-21T23:48:28.844Z,9.84
2023-03-21T23:50:31.430Z,9.85
2023-03-21T23:52:34.398Z,9.78
2023-03-21T23:54:37.278Z,9.73
2023-03-21T23:56:39.960Z,9.81
2023-03-21T23:58:42.619Z,9.88
